createdAt,value
2019-03-10T00:00:18.882Z,7.00
2019-03-10T00:02:47.260Z,5.47
2019-03-10T00:05:15.706Z,5.47
2019-03-10T00:07:44.081Z,7.77
2019-03-10T00:10:12.495Z,6.50
2019-03-10T00:12:40.879Z,11.50
2019-03-10T00:15:12.744Z,5.87
2019-03-10T00:17:41.124Z,4.40
2019-03-10T00:20:11.146Z,5.10
2019-03-10T00:22:39.521Z,7.77
2019-03-10T00:25:09.543Z,5.23
2019-03-10T00:27:37.922Z,6.90
2019-03-10T00:30:11.834Z,9.03
2019-03-10T00:32:40.216Z,4.00
2019-03-10T00:35:08.727Z,5.80
2019-03-10T00:37:37.102Z,5.63
2019-03-10T00:40:11.200Z,5.47
2019-03-10T00:43:14.641Z,5.00
2019-03-10T00:46:09.917Z,5.77
2019-03-10T00:48:44.067Z,4.73
2019-03-10T00:51:27.086Z,5.93
2019-03-10T00:53:55.426Z,4.80
2019-03-10T00:56:23.803Z,5.50
2019-03-10T00:58:52.187Z,5.70
2019-03-10T01:01:20.566Z,7.60
2019-03-10T01:03:48.941Z,7.60
2019-03-10T01:06:17.332Z,6.30
2019-03-10T01:08:45.808Z,4.93
2019-03-10T01:11:14.238Z,4.53
2019-03-10T01:13:42.750Z,5.37
2019-03-10T01:16:12.010Z,4.00
2019-03-10T01:18:41.323Z,7.10
2019-03-10T01:21:11.757Z,8.57
2019-03-10T01:23:40.140Z,6.20
2019-03-10T01:26:08.519Z,4.27
2019-03-10T01:28:36.894Z,6.67
2019-03-10T01:31:20.428Z,3.60
2019-03-10T01:34:23.020Z,5.63
2019-03-10T01:36:53.703Z,3.90
2019-03-10T01:39:22.119Z,3.10
2019-03-10T01:41:50.496Z,5.40
2019-03-10T01:44:18.950Z,5.30
2019-03-10T01:46:47.333Z,5.27
2019-03-10T01:49:15.708Z,5.00
2019-03-10T01:51:44.091Z,5.90
2019-03-10T01:54:12.547Z,6.83
2019-03-10T01:56:40.930Z,5.97
2019-03-10T01:59:09.307Z,4.33
2019-03-10T02:01:37.692Z,4.57
2019-03-10T02:04:06.071Z,3.63
2019-03-10T02:06:34.528Z,4.40
2019-03-10T02:09:03.879Z,4.33
2019-03-10T02:11:32.262Z,3.10
2019-03-10T02:14:00.655Z,3.60
2019-03-10T02:16:29.017Z,4.57
2019-03-10T02:18:57.396Z,3.80
2019-03-10T02:21:26.685Z,5.83
2019-03-10T02:23:55.068Z,5.27
2019-03-10T02:26:23.450Z,4.03
2019-03-10T02:28:51.830Z,3.33
2019-03-10T02:31:20.218Z,4.60
2019-03-10T02:33:48.602Z,4.23
2019-03-10T02:36:16.993Z,3.57
2019-03-10T02:38:45.370Z,4.17
2019-03-10T02:41:13.755Z,5.07
2019-03-10T02:43:42.128Z,3.87
2019-03-10T02:46:10.528Z,5.73
2019-03-10T02:48:38.895Z,4.33
2019-03-10T02:51:07.261Z,5.20
2019-03-10T02:53:35.680Z,4.23
2019-03-10T02:56:04.054Z,3.43
2019-03-10T02:58:32.439Z,4.00
2019-03-10T03:01:00.852Z,5.80
2019-03-10T03:03:29.240Z,4.47
2019-03-10T03:05:57.618Z,4.77
2019-03-10T03:08:25.995Z,3.87
2019-03-10T03:10:54.450Z,5.93
2019-03-10T03:13:22.861Z,3.83
2019-03-10T03:15:51.239Z,4.73
2019-03-10T03:18:19.609Z,4.70
2019-03-10T03:20:48.020Z,5.70
2019-03-10T03:23:16.430Z,5.63
2019-03-10T03:25:44.843Z,4.70
2019-03-10T03:28:13.222Z,3.97
2019-03-10T03:30:41.608Z,5.43
2019-03-10T03:33:10.011Z,3.63
2019-03-10T03:35:49.744Z,4.60
2019-03-10T03:38:26.638Z,3.53
2019-03-10T03:41:09.931Z,4.40
2019-03-10T03:43:38.302Z,4.43
2019-03-10T03:46:06.696Z,4.33
2019-03-10T03:48:35.069Z,4.33
2019-03-10T03:51:03.562Z,3.40
2019-03-10T03:53:31.953Z,5.17
2019-03-10T03:56:00.462Z,2.57
2019-03-10T03:58:28.879Z,3.93
2019-03-10T04:00:58.913Z,4.03
2019-03-10T04:03:27.288Z,3.40
2019-03-10T04:05:55.706Z,3.93
2019-03-10T04:08:24.195Z,4.43
2019-03-10T04:10:52.574Z,4.00
2019-03-10T04:13:21.001Z,3.97
2019-03-10T04:15:49.370Z,3.27
2019-03-10T04:18:17.759Z,5.13
2019-03-10T04:20:46.175Z,3.13
2019-03-10T04:23:14.556Z,3.57
2019-03-10T04:25:42.974Z,4.60
2019-03-10T04:28:11.385Z,4.33
2019-03-10T04:30:39.806Z,4.73
2019-03-10T04:33:08.240Z,3.27
2019-03-10T04:35:36.645Z,3.50
2019-03-10T04:38:05.075Z,2.70
2019-03-10T04:40:33.445Z,5.97
2019-03-10T04:43:02.023Z,3.70
2019-03-10T04:45:30.408Z,3.37
2019-03-10T04:47:58.878Z,6.13
2019-03-10T04:50:27.259Z,4.03
2019-03-10T04:52:55.675Z,5.63
2019-03-10T04:55:25.659Z,3.93
2019-03-10T04:57:58.613Z,3.13
2019-03-10T05:00:27.429Z,3.13
2019-03-10T05:02:55.960Z,2.53
2019-03-10T05:05:24.341Z,4.23
2019-03-10T05:07:52.721Z,3.43
2019-03-10T05:10:21.101Z,3.13
2019-03-10T05:12:49.510Z,2.43
2019-03-10T05:15:17.917Z,3.07
2019-03-10T05:17:46.338Z,3.83
2019-03-10T05:20:14.776Z,3.67
2019-03-10T05:22:43.250Z,3.27
2019-03-10T05:25:13.879Z,2.33
2019-03-10T05:27:42.319Z,2.23
2019-03-10T05:30:11.166Z,3.60
2019-03-10T05:32:39.606Z,2.70
2019-03-10T05:35:08.637Z,2.13
2019-03-10T05:37:37.088Z,7.30
2019-03-10T05:40:07.524Z,2.80
2019-03-10T05:42:35.993Z,5.10
2019-03-10T05:45:06.343Z,4.33
2019-03-10T05:47:34.772Z,3.80
2019-03-10T05:50:03.653Z,4.30
2019-03-10T05:52:32.078Z,3.93
2019-03-10T05:55:00.454Z,7.30
2019-03-10T05:57:28.835Z,3.87
2019-03-10T05:59:57.218Z,5.37
2019-03-10T06:02:25.598Z,4.47
2019-03-10T06:04:53.982Z,5.47
2019-03-10T06:07:22.370Z,3.80
2019-03-10T06:09:50.753Z,4.97
2019-03-10T06:12:19.146Z,2.87
2019-03-10T06:14:47.532Z,6.03
2019-03-10T06:17:15.952Z,8.70
2019-03-10T06:19:44.335Z,4.43
2019-03-10T06:22:12.758Z,4.00
2019-03-10T06:24:41.143Z,4.30
2019-03-10T06:27:09.561Z,2.47
2019-03-10T06:29:37.930Z,2.73
2019-03-10T06:32:06.313Z,4.07
2019-03-10T06:34:34.697Z,3.83
2019-03-10T06:37:03.089Z,2.63
2019-03-10T06:39:31.486Z,4.53
2019-03-10T06:41:59.866Z,3.67
2019-03-10T06:44:28.276Z,3.77
2019-03-10T06:46:56.680Z,2.73
2019-03-10T06:49:25.069Z,4.03
2019-03-10T06:51:53.446Z,2.83
2019-03-10T06:54:21.832Z,3.07
2019-03-10T06:56:50.213Z,2.27
2019-03-10T06:59:18.601Z,3.93
2019-03-10T07:01:46.973Z,3.50
2019-03-10T07:04:15.354Z,3.43
2019-03-10T07:06:43.746Z,2.07
2019-03-10T07:09:12.149Z,2.43
2019-03-10T07:11:40.535Z,3.03
2019-03-10T07:14:08.918Z,2.77
2019-03-10T07:16:37.292Z,1.77
2019-03-10T07:19:05.701Z,3.47
2019-03-10T07:21:34.125Z,3.23
2019-03-10T07:24:02.570Z,1.77
2019-03-10T07:26:30.946Z,3.43
2019-03-10T07:29:01.017Z,2.80
2019-03-10T07:31:43.408Z,2.30
2019-03-10T07:34:19.127Z,2.10
2019-03-10T07:36:49.176Z,2.63
2019-03-10T07:39:19.166Z,4.10
2019-03-10T07:41:51.985Z,1.33
2019-03-10T07:44:22.014Z,5.30
2019-03-10T07:47:00.776Z,3.57
2019-03-10T07:49:30.790Z,2.67
2019-03-10T07:52:20.599Z,4.03
2019-03-10T07:54:53.887Z,2.07
2019-03-10T07:57:23.935Z,2.47
2019-03-10T07:59:53.959Z,3.43
2019-03-10T08:02:24.011Z,2.80
2019-03-10T08:04:54.057Z,3.03
2019-03-10T08:07:26.840Z,4.30
2019-03-10T08:10:02.918Z,1.97
2019-03-10T08:12:33.042Z,3.63
2019-03-10T08:15:12.122Z,3.93
2019-03-10T08:17:42.264Z,5.10
2019-03-10T08:20:15.021Z,3.27
2019-03-10T08:22:48.096Z,4.40
2019-03-10T08:25:18.086Z,2.83
2019-03-10T08:28:04.781Z,2.73
2019-03-10T08:30:40.561Z,3.20
2019-03-10T08:33:10.578Z,3.80
2019-03-10T08:35:57.050Z,3.43
2019-03-10T08:38:39.135Z,4.07
2019-03-10T08:41:09.158Z,2.93
2019-03-10T08:43:44.799Z,3.40
2019-03-10T08:46:14.848Z,3.97
2019-03-10T08:48:47.595Z,2.23
2019-03-10T08:51:23.441Z,2.93
2019-03-10T08:53:59.383Z,1.70
2019-03-10T08:56:29.432Z,2.53
2019-03-10T08:59:08.453Z,4.43
2019-03-10T09:01:38.513Z,2.30
2019-03-10T09:04:17.368Z,3.23
2019-03-10T09:06:47.395Z,1.73
2019-03-10T09:09:33.610Z,2.70
2019-03-10T09:12:03.563Z,4.27
2019-03-10T09:14:42.757Z,2.33
2019-03-10T09:17:12.781Z,2.90
2019-03-10T09:19:42.799Z,3.23
2019-03-10T09:22:29.510Z,3.50
2019-03-10T09:25:15.990Z,2.73
2019-03-10T09:28:02.468Z,3.33
2019-03-10T09:30:32.500Z,2.77
2019-03-10T09:33:05.489Z,3.60
2019-03-10T09:35:35.517Z,4.13
2019-03-10T09:38:08.269Z,3.73
2019-03-10T09:40:43.968Z,2.73
2019-03-10T09:43:25.978Z,3.47
2019-03-10T09:46:01.672Z,4.03
2019-03-10T09:48:48.017Z,3.60
2019-03-10T09:51:23.481Z,6.17
2019-03-10T09:53:58.961Z,5.63
2019-03-10T09:56:34.944Z,4.50
2019-03-10T09:59:10.944Z,5.63
2019-03-10T10:01:41.026Z,4.53
2019-03-10T10:04:14.131Z,5.27
2019-03-10T10:06:46.945Z,5.93
2019-03-10T10:09:29.213Z,5.57
2019-03-10T10:12:13.730Z,5.97
2019-03-10T10:14:55.202Z,6.37
2019-03-10T10:17:43.442Z,6.70
2019-03-10T10:20:16.504Z,6.50
2019-03-10T10:23:04.917Z,6.50
2019-03-10T10:25:37.372Z,5.80
2019-03-10T10:28:16.463Z,6.87
2019-03-10T10:31:02.491Z,6.77
2019-03-10T10:33:35.506Z,6.27
2019-03-10T10:36:05.606Z,5.10
2019-03-10T10:38:41.334Z,6.30
2019-03-10T10:41:14.349Z,4.30
2019-03-10T10:43:53.414Z,4.30
2019-03-10T10:46:23.452Z,5.57
2019-03-10T10:48:59.039Z,4.47
2019-03-10T10:51:29.912Z,4.30
2019-03-10T10:54:02.955Z,4.53
2019-03-10T10:56:45.038Z,3.53
2019-03-10T10:59:18.053Z,3.60
2019-03-10T11:01:53.517Z,2.80
2019-03-10T11:04:39.445Z,2.77
2019-03-10T11:07:18.702Z,2.87
2019-03-10T11:09:48.776Z,3.03
2019-03-10T11:12:18.794Z,2.00
2019-03-10T11:14:48.814Z,2.37
2019-03-10T11:17:31.169Z,3.03
2019-03-10T11:20:10.302Z,1.60
2019-03-10T11:22:58.748Z,3.77
2019-03-10T11:25:31.796Z,3.90
2019-03-10T11:28:20.036Z,1.00
2019-03-10T11:30:52.838Z,0.70
2019-03-10T11:33:38.018Z,0.80
2019-03-10T11:36:24.104Z,1.60
2019-03-10T11:38:54.151Z,3.07
2019-03-10T11:41:34.066Z,1.77
2019-03-10T11:44:16.377Z,2.90
2019-03-10T11:46:46.430Z,3.27
2019-03-10T11:49:31.567Z,3.00
2019-03-10T11:52:01.603Z,2.77
2019-03-10T11:54:31.642Z,2.47
2019-03-10T11:57:07.675Z,2.47
2019-03-10T11:59:55.497Z,1.97
2019-03-10T12:02:41.487Z,2.00
2019-03-10T12:05:24.835Z,1.30
2019-03-10T12:07:58.098Z,1.93
2019-03-10T12:10:26.488Z,0.77
2019-03-10T12:12:54.880Z,0.87
2019-03-10T12:15:23.308Z,0.77
2019-03-10T12:17:51.746Z,2.23
2019-03-10T12:20:20.184Z,0.83
2019-03-10T12:22:48.981Z,0.90
2019-03-10T12:25:17.406Z,1.07
2019-03-10T12:27:46.035Z,1.97
2019-03-10T12:30:17.608Z,0.93
2019-03-10T12:32:46.152Z,0.50
2019-03-10T12:35:14.521Z,1.30
2019-03-10T12:37:43.016Z,0.60
2019-03-10T12:40:12.635Z,1.10
2019-03-10T12:42:41.081Z,1.53
2019-03-10T12:45:10.955Z,0.43
2019-03-10T12:47:39.345Z,1.03
2019-03-10T12:50:12.342Z,1.30
2019-03-10T12:52:40.833Z,0.93
2019-03-10T12:55:10.225Z,0.80
2019-03-10T12:57:38.678Z,0.40
2019-03-10T13:00:15.115Z,1.07
2019-03-10T13:02:43.562Z,2.00
2019-03-10T13:05:12.230Z,0.50
2019-03-10T13:07:40.651Z,0.80
2019-03-10T13:10:09.180Z,1.73
2019-03-10T13:12:37.570Z,1.20
2019-03-10T13:15:11.148Z,1.20
2019-03-10T13:17:39.597Z,0.93
2019-03-10T13:20:10.303Z,0.80
2019-03-10T13:22:38.784Z,0.50
2019-03-10T13:25:10.306Z,0.60
2019-03-10T13:27:38.841Z,1.23
2019-03-10T13:30:09.870Z,0.77
2019-03-10T13:32:38.317Z,0.43
2019-03-10T13:35:07.333Z,0.50
2019-03-10T13:37:35.795Z,0.40
2019-03-10T13:40:06.250Z,0.70
2019-03-10T13:42:34.711Z,1.87
2019-03-10T13:45:03.406Z,0.60
2019-03-10T13:47:31.796Z,0.53
2019-03-10T13:50:00.346Z,1.20
2019-03-10T13:52:28.772Z,1.80
2019-03-10T13:54:57.167Z,1.40
2019-03-10T13:57:25.607Z,0.70
2019-03-10T13:59:53.991Z,2.13
2019-03-10T14:02:22.385Z,0.70
2019-03-10T14:04:50.879Z,0.37
2019-03-10T14:07:19.315Z,0.40
2019-03-10T14:09:47.714Z,1.13
2019-03-10T14:12:16.121Z,1.20
2019-03-10T14:14:44.547Z,0.90
2019-03-10T14:17:12.933Z,0.93
2019-03-10T14:19:41.356Z,0.20
2019-03-10T14:22:09.794Z,0.50
2019-03-10T14:24:38.225Z,1.93
2019-03-10T14:27:07.580Z,0.67
2019-03-10T14:29:35.994Z,0.70
2019-03-10T14:32:04.394Z,1.07
2019-03-10T14:34:32.780Z,0.77
2019-03-10T14:37:01.170Z,1.30
2019-03-10T14:39:29.635Z,1.63
2019-03-10T14:41:58.052Z,1.93
2019-03-10T14:44:26.485Z,0.20
2019-03-10T14:46:54.912Z,1.80
2019-03-10T14:49:23.799Z,1.80
2019-03-10T14:51:52.282Z,0.20
2019-03-10T14:54:20.656Z,0.67
2019-03-10T14:56:49.123Z,0.33
2019-03-10T14:59:17.576Z,0.70
2019-03-10T15:01:46.012Z,5.43
2019-03-10T15:04:14.421Z,0.30
2019-03-10T15:06:42.807Z,1.87
2019-03-10T15:09:12.332Z,0.80
2019-03-10T15:11:40.763Z,1.63
2019-03-10T15:14:09.178Z,4.37
2019-03-10T15:16:37.603Z,1.53
2019-03-10T15:19:05.980Z,1.20
2019-03-10T15:21:34.390Z,3.00
2019-03-10T15:24:02.779Z,2.33
2019-03-10T15:26:31.195Z,3.47
2019-03-10T15:28:59.588Z,3.07
2019-03-10T15:31:27.998Z,2.17
2019-03-10T15:33:56.435Z,3.30
2019-03-10T15:36:24.842Z,1.50
2019-03-10T15:38:53.291Z,4.10
2019-03-10T15:41:21.672Z,3.10
2019-03-10T15:43:50.100Z,4.20
2019-03-10T15:46:18.510Z,2.30
2019-03-10T15:48:46.952Z,6.40
2019-03-10T15:51:15.306Z,1.80
2019-03-10T15:53:43.924Z,2.27
2019-03-10T15:56:12.333Z,0.93
2019-03-10T15:58:40.814Z,6.07
2019-03-10T16:01:09.286Z,1.13
2019-03-10T16:03:37.705Z,2.00
2019-03-10T16:06:06.089Z,1.70
2019-03-10T16:08:34.483Z,1.80
2019-03-10T16:11:02.921Z,2.27
2019-03-10T16:13:31.318Z,6.10
2019-03-10T16:15:59.706Z,1.57
2019-03-10T16:18:28.118Z,4.47
2019-03-10T16:20:56.597Z,1.57
2019-03-10T16:23:25.001Z,2.40
2019-03-10T16:25:53.364Z,3.17
2019-03-10T16:28:21.749Z,3.93
2019-03-10T16:30:50.137Z,3.00
2019-03-10T16:33:18.548Z,3.43
2019-03-10T16:35:46.939Z,2.53
2019-03-10T16:38:15.461Z,3.80
2019-03-10T16:40:43.814Z,4.90
2019-03-10T16:43:12.202Z,5.07
2019-03-10T16:45:40.597Z,2.80
2019-03-10T16:48:08.992Z,3.30
2019-03-10T16:50:37.374Z,2.00
2019-03-10T16:53:05.758Z,3.80
2019-03-10T16:55:34.200Z,4.93
2019-03-10T16:58:02.642Z,3.43
2019-03-10T17:00:31.121Z,4.17
2019-03-10T17:02:59.568Z,4.08
2019-03-10T17:05:27.946Z,5.13
2019-03-10T17:07:56.519Z,5.57
2019-03-10T17:10:27.993Z,7.33
2019-03-10T17:12:56.488Z,7.90
2019-03-10T17:15:25.645Z,4.70
2019-03-10T17:17:54.396Z,7.83
2019-03-10T17:20:22.858Z,5.63
2019-03-10T17:22:51.344Z,5.80
2019-03-10T17:25:19.771Z,6.27
2019-03-10T17:27:48.311Z,7.57
2019-03-10T17:30:23.227Z,7.17
2019-03-10T17:32:51.705Z,6.93
2019-03-10T17:35:20.788Z,8.33
2019-03-10T17:37:49.240Z,10.03
2019-03-10T17:40:24.099Z,12.13
2019-03-10T17:42:53.027Z,6.43
2019-03-10T17:45:22.556Z,10.93
2019-03-10T17:47:51.148Z,11.13
2019-03-10T17:50:21.694Z,9.13
2019-03-10T17:52:50.599Z,9.13
2019-03-10T17:55:22.263Z,11.80
2019-03-10T17:57:50.780Z,8.93
2019-03-10T18:00:30.672Z,6.37
2019-03-10T18:02:59.170Z,6.43
2019-03-10T18:05:27.560Z,13.87
2019-03-10T18:07:55.954Z,9.50
2019-03-10T18:10:24.341Z,9.30
2019-03-10T18:12:52.898Z,7.33
2019-03-10T18:15:21.349Z,8.95
2019-03-10T18:17:49.787Z,10.63
2019-03-10T18:20:20.280Z,9.87
2019-03-10T18:22:48.829Z,6.90
2019-03-10T18:25:17.256Z,9.70
2019-03-10T18:27:45.674Z,11.17
2019-03-10T18:30:21.729Z,7.77
2019-03-10T18:32:50.253Z,8.27
2019-03-10T18:35:18.659Z,9.20
2019-03-10T18:37:47.185Z,8.63
2019-03-10T18:40:25.997Z,10.90
2019-03-10T18:42:54.523Z,8.77
2019-03-10T18:45:22.941Z,8.30
2019-03-10T18:47:51.381Z,10.60
2019-03-10T18:50:21.221Z,6.67
2019-03-10T18:52:49.622Z,6.07
2019-03-10T18:55:18.580Z,5.83
2019-03-10T18:57:47.096Z,11.07
2019-03-10T19:00:17.957Z,7.60
2019-03-10T19:02:46.780Z,8.87
2019-03-10T19:05:15.299Z,10.93
2019-03-10T19:07:43.688Z,9.90
2019-03-10T19:10:13.410Z,6.93
2019-03-10T19:12:41.858Z,8.03
2019-03-10T19:15:16.139Z,8.20
2019-03-10T19:17:44.573Z,5.33
2019-03-10T19:20:14.600Z,7.07
2019-03-10T19:22:42.976Z,5.90
2019-03-10T19:25:17.376Z,7.20
2019-03-10T19:27:46.751Z,6.83
2019-03-10T19:30:19.208Z,7.20
2019-03-10T19:32:47.621Z,6.90
2019-03-10T19:35:16.165Z,6.03
2019-03-10T19:37:44.542Z,4.53
2019-03-10T19:40:20.492Z,7.27
2019-03-10T19:42:48.931Z,6.43
2019-03-10T19:45:21.642Z,7.22
2019-03-10T19:47:50.086Z,8.60
2019-03-10T19:50:28.986Z,9.00
2019-03-10T19:52:57.570Z,7.63
2019-03-10T19:55:26.053Z,7.80
2019-03-10T19:57:54.457Z,5.30
2019-03-10T20:00:23.238Z,4.83
2019-03-10T20:02:51.634Z,7.00
2019-03-10T20:05:20.028Z,5.40
2019-03-10T20:07:48.413Z,4.20
2019-03-10T20:10:25.741Z,7.10
2019-03-10T20:12:54.186Z,10.27
2019-03-10T20:15:23.660Z,5.97
2019-03-10T20:17:52.064Z,5.73
2019-03-10T20:20:22.421Z,5.47
2019-03-10T20:22:50.797Z,4.10
2019-03-10T20:25:19.189Z,8.73
2019-03-10T20:27:47.562Z,6.30
2019-03-10T20:30:19.046Z,3.73
2019-03-10T20:32:47.572Z,3.43
2019-03-10T20:35:15.952Z,3.93
2019-03-10T20:37:44.333Z,5.55
2019-03-10T20:40:17.390Z,5.57
2019-03-10T20:42:45.908Z,7.37
2019-03-10T20:45:14.737Z,5.37
2019-03-10T20:47:43.127Z,2.20
2019-03-10T20:50:14.555Z,3.67
2019-03-10T20:52:43.020Z,3.80
2019-03-10T20:55:12.556Z,4.17
2019-03-10T20:57:40.930Z,3.57
2019-03-10T21:00:15.103Z,2.43
2019-03-10T21:02:43.498Z,4.57
2019-03-10T21:05:12.444Z,3.00
2019-03-10T21:07:41.734Z,7.07
2019-03-10T21:10:16.050Z,5.43
2019-03-10T21:12:44.436Z,3.47
2019-03-10T21:15:17.460Z,4.43
2019-03-10T21:17:46.040Z,1.67
2019-03-10T21:20:22.029Z,6.60
2019-03-10T21:22:50.380Z,5.70
2019-03-10T21:25:32.509Z,6.17
2019-03-10T21:28:00.894Z,5.33
2019-03-10T21:30:33.690Z,9.43
2019-03-10T21:33:02.319Z,5.60
2019-03-10T21:35:33.151Z,4.90
2019-03-10T21:38:00.949Z,2.57
2019-03-10T21:40:30.870Z,1.90
2019-03-10T21:42:59.284Z,2.03
2019-03-10T21:45:27.709Z,1.57
2019-03-10T21:47:56.193Z,0.90
2019-03-10T21:50:24.590Z,1.80
2019-03-10T21:52:53.015Z,0.77
2019-03-10T21:55:21.470Z,2.07
2019-03-10T21:57:49.877Z,2.17
2019-03-10T22:00:22.763Z,2.10
2019-03-10T22:02:51.181Z,1.17
2019-03-10T22:05:19.650Z,0.80
2019-03-10T22:07:48.086Z,0.57
2019-03-10T22:10:27.126Z,1.10
2019-03-10T22:12:50.543Z,1.07
2019-03-10T22:15:22.047Z,1.53
2019-03-10T22:17:50.516Z,1.33
2019-03-10T22:20:19.641Z,1.00
2019-03-10T22:22:49.638Z,1.07
2019-03-10T22:25:18.160Z,1.00
2019-03-10T22:27:46.669Z,0.30
2019-03-10T22:30:18.951Z,1.07
2019-03-10T22:32:47.338Z,1.20
2019-03-10T22:35:15.820Z,1.07
2019-03-10T22:37:44.376Z,0.70
2019-03-10T22:40:19.419Z,1.13
2019-03-10T22:42:47.884Z,1.80
2019-03-10T22:45:17.188Z,1.40
2019-03-10T22:47:45.641Z,1.17
2019-03-10T22:50:15.009Z,1.53
2019-03-10T22:52:43.813Z,1.33
2019-03-10T22:55:13.286Z,2.03
2019-03-10T22:57:41.720Z,2.50
2019-03-10T23:00:19.143Z,4.47
2019-03-10T23:02:47.526Z,1.20
2019-03-10T23:05:15.972Z,3.50
2019-03-10T23:07:44.425Z,1.43
2019-03-10T23:10:16.277Z,1.67
2019-03-10T23:12:44.730Z,2.63
2019-03-10T23:15:14.486Z,2.93
2019-03-10T23:17:42.955Z,1.73
2019-03-10T23:20:15.882Z,3.07
2019-03-10T23:22:44.625Z,2.90
2019-03-10T23:25:13.141Z,2.63
2019-03-10T23:27:41.594Z,2.73
2019-03-10T23:30:13.057Z,0.93
2019-03-10T23:32:41.437Z,2.27
2019-03-10T23:35:09.980Z,0.60
2019-03-10T23:37:38.465Z,0.30
2019-03-10T23:40:09.790Z,2.60
2019-03-10T23:42:38.202Z,1.77
2019-03-10T23:45:09.064Z,1.63
2019-03-10T23:47:37.446Z,3.43
2019-03-10T23:50:07.662Z,0.93
2019-03-10T23:52:36.158Z,0.73
2019-03-10T23:55:06.159Z,1.23
2019-03-10T23:57:34.569Z,1.83
